Time;durP1;ratioP1;P1;durP2;ratioP2;P2;SDS_P1;SDS_P2;PMS_P1;PMS_P2;Temp;Humidity;BMP_temperature;BMP_pressure;BME280_temperature;BME280_humidity;BME280_pressure;Samples;Min_cycle;Max_cycle;Signal;HPM_P1;HPM_P2
2022/03/14 00:01:22;;;;;;;;;52.25;39.75;;;;;5.17;28.74;100724.84;4902398;28;9018;-78
2022/03/14 00:03:53;;;;;;;;;65.50;50.25;;;;;5.26;29.17;100717.47;4933298;28;8858;-80
2022/03/14 00:06:23;;;;;;;;;55.75;46.75;;;;;5.42;29.06;100725.00;4951351;28;8982;-80
2022/03/14 00:08:55;;;;;;;;;44.50;39.50;;;;;5.49;28.84;100718.38;4952366;28;8860;-79
2022/03/14 00:11:25;;;;;;;;;56.50;47.00;;;;;5.55;28.82;100717.72;4952286;28;8885;-80
2022/03/14 00:13:55;;;;;;;;;54.00;47.50;;;;;5.51;28.30;100718.44;4936491;28;8953;-80
2022/03/14 00:16:24;;;;;;;;;49.75;45.75;;;;;5.23;28.96;100720.78;4952068;28;8893;-77
2022/03/14 00:18:55;;;;;;;;;46.00;41.75;;;;;5.26;28.93;100715.75;4951924;28;8843;-80
2022/03/14 00:21:25;;;;;;;;;56.75;48.25;;;;;5.21;29.27;100722.44;4950089;28;8942;-81
2022/03/14 00:23:56;;;;;;;;;47.00;42.50;;;;;5.23;29.11;100719.91;4929361;29;8976;-80
2022/03/14 00:26:26;;;;;;;;;50.25;45.50;;;;;5.30;28.74;100719.34;4934176;28;8883;-79
2022/03/14 00:28:55;;;;;;;;;48.50;44.00;;;;;5.31;28.61;100721.09;4934405;28;8875;-81
2022/03/14 00:31:24;;;;;;;;;47.25;43.00;;;;;5.30;28.43;100721.94;5006764;28;8924;-79
2022/03/14 00:33:53;;;;;;;;;49.75;41.00;;;;;5.38;28.48;100727.41;4973868;28;8870;-79
2022/03/14 00:36:25;;;;;;;;;56.75;45.75;;;;;5.47;28.24;100723.47;5006765;28;9147;-80
2022/03/14 00:38:56;;;;;;;;;53.50;44.50;;;;;5.54;28.51;100727.19;4972911;28;8936;-81
2022/03/14 00:41:24;;;;;;;;;53.00;43.50;;;;;5.59;28.41;100724.78;5008192;28;8893;-78
2022/03/14 00:43:53;;;;;;;;;43.00;41.25;;;;;5.54;28.08;100731.47;5006536;28;8842;-78
2022/03/14 00:46:22;;;;;;;;;52.75;41.25;;;;;5.59;28.06;100730.81;4978064;28;8842;-78
2022/03/14 00:48:50;;;;;;;;;44.00;35.50;;;;;5.60;28.27;100729.13;4974756;28;8933;-78
2022/03/14 00:51:19;;;;;;;;;44.50;40.25;;;;;5.61;28.25;100725.72;4975068;28;8866;-78
2022/03/14 00:53:48;;;;;;;;;49.50;43.75;;;;;5.62;28.39;100722.31;4974129;28;8850;-79
2022/03/14 00:56:20;;;;;;;;;36.50;35.00;;;;;5.59;28.02;100724.78;4972593;28;8946;-77
2022/03/14 00:58:49;;;;;;;;;48.50;44.75;;;;;5.63;28.62;100732.72;5020844;28;8915;-78
2022/03/14 01:01:21;;;;;;;;;54.25;46.00;;;;;5.63;28.12;100734.41;4963293;28;8862;-78
2022/03/14 01:03:50;;;;;;;;;53.00;45.50;;;;;5.63;28.23;100737.91;5007692;28;8833;-77
2022/03/14 01:06:19;;;;;;;;;44.75;43.00;;;;;5.64;28.54;100731.00;5007791;28;8869;-79
2022/03/14 01:08:48;;;;;;;;;51.50;45.00;;;;;5.56;28.63;100735.91;5009843;28;8997;-78
2022/03/14 01:11:18;;;;;;;;;51.00;45.75;;;;;5.54;28.44;100742.72;5034973;28;8887;-80
2022/03/14 01:13:47;;;;;;;;;54.25;46.00;;;;;5.59;28.42;100733.41;4988095;28;8873;-80
2022/03/14 01:16:15;;;;;;;;;45.00;42.75;;;;;5.61;28.63;100733.47;4988624;28;8868;-79
2022/03/14 01:18:44;;;;;;;;;52.75;43.75;;;;;5.61;28.71;100736.97;4975419;28;8854;-77
2022/03/14 01:21:13;;;;;;;;;53.25;45.00;;;;;5.64;28.45;100738.78;4991930;28;8862;-77
2022/03/14 01:23:41;;;;;;;;;49.50;43.75;;;;;5.63;28.39;100737.00;4967092;28;9010;-79
2022/03/14 01:26:10;;;;;;;;;43.75;42.00;;;;;5.59;28.28;100737.72;4951199;28;8867;-78
2022/03/14 01:28:40;;;;;;;;;44.25;39.25;;;;;5.57;28.24;100739.34;4934379;28;8906;-79
2022/03/14 01:31:08;;;;;;;;;44.50;38.00;;;;;5.56;28.37;100740.19;4935021;28;8875;-78
2022/03/14 01:33:37;;;;;;;;;36.00;34.25;;;;;5.51;28.21;100736.53;4935304;28;8891;-77
2022/03/14 01:36:07;;;;;;;;;43.00;38.75;;;;;5.47;28.76;100732.94;4934905;28;8979;-77
2022/03/14 01:38:35;;;;;;;;;34.75;32.50;;;;;5.39;28.61;100735.22;4950831;28;9601;-78
2022/03/14 01:41:04;;;;;;;;;37.50;35.75;;;;;5.39;28.76;100734.34;4934927;28;8914;-77
2022/03/14 01:43:33;;;;;;;;;38.75;33.50;;;;;5.40;28.89;100736.97;4934855;28;8856;-78
2022/03/14 01:46:03;;;;;;;;;35.00;33.25;;;;;5.35;28.50;100732.44;4946882;28;8945;-78
2022/03/14 01:48:34;;;;;;;;;38.50;37.25;;;;;5.36;28.28;100742.84;4947594;29;8862;-78
2022/03/14 01:51:03;;;;;;;;;34.00;29.25;;;;;5.37;28.58;100738.56;4928316;29;8887;-79
2022/03/14 01:53:33;;;;;;;;;32.50;29.75;;;;;5.37;28.81;100730.81;4928721;29;8932;-78
2022/03/14 01:56:01;;;;;;;;;37.00;34.50;;;;;5.37;28.70;100734.28;4968520;28;9793;-80
2022/03/14 01:58:30;;;;;;;;;38.75;35.00;;;;;5.37;28.59;100729.13;4985803;28;8864;-80
2022/03/14 02:00:58;;;;;;;;;38.25;37.00;;;;;5.38;28.72;100745.50;4958328;28;8936;-79
2022/03/14 02:03:29;;;;;;;;;37.50;34.00;;;;;5.38;28.85;100748.97;5006214;28;8880;-78
2022/03/14 02:05:58;;;;;;;;;38.75;38.00;;;;;5.35;28.99;100748.88;4929477;28;8878;-78
2022/03/14 02:08:27;;;;;;;;;41.75;38.75;;;;;5.27;29.29;100756.31;4958147;28;8856;-80
2022/03/14 02:10:55;;;;;;;;;43.00;39.00;;;;;5.22;29.16;100762.13;4970776;28;8864;-78
2022/03/14 02:13:26;;;;;;;;;43.75;39.25;;;;;5.19;28.61;100764.56;4943100;28;8926;-78
2022/03/14 02:15:54;;;;;;;;;42.25;38.00;;;;;5.17;28.75;100772.25;4970602;28;8978;-80
2022/03/14 02:18:23;;;;;;;;;35.25;33.25;;;;;5.16;28.82;100773.09;4954944;28;8852;-78
2022/03/14 02:20:53;;;;;;;;;45.50;43.00;;;;;5.14;29.46;100782.50;4954608;28;8875;-78
2022/03/14 02:23:21;;;;;;;;;46.75;38.50;;;;;5.13;29.44;100785.91;4907498;28;8871;-79
2022/03/14 02:25:52;;;;;;;;;45.25;41.50;;;;;5.09;29.39;100789.19;4973767;28;8845;-80
2022/03/14 02:28:23;;;;;;;;;41.50;37.25;;;;;5.07;29.52;100791.69;4989510;28;8913;-80
2022/03/14 02:30:54;;;;;;;;;47.25;42.00;;;;;5.05;29.48;100783.00;4957524;28;8860;-77
2022/03/14 02:33:23;;;;;;;;;47.25;41.75;;;;;4.97;29.93;100786.97;4972290;28;8941;-80
2022/03/14 02:35:53;;;;;;;;;38.00;35.50;;;;;4.89;29.51;100781.44;4973009;28;8865;-78
2022/03/14 02:38:22;;;;;;;;;42.25;40.00;;;;;4.80;29.67;100785.34;4957129;28;8887;-78
2022/03/14 02:40:50;;;;;;;;;55.00;44.25;;;;;4.64;30.45;100787.28;5011858;28;8848;-79
2022/03/14 02:43:22;;;;;;;;;44.25;42.75;;;;;4.44;31.43;100786.44;5028601;28;8868;-78
2022/03/14 02:45:51;;;;;;;;;51.50;42.50;;;;;4.39;31.11;100789.63;4996060;28;8836;-79
2022/03/14 02:48:23;;;;;;;;;46.75;44.75;;;;;4.24;31.25;100788.09;5011825;28;8860;-79
2022/03/14 02:50:54;;;;;;;;;47.00;43.50;;;;;4.13;31.54;100783.28;4994336;28;8834;-80
2022/03/14 02:53:22;;;;;;;;;46.00;42.00;;;;;4.08;32.19;100776.22;4960287;28;8999;-81
2022/03/14 02:55:51;;;;;;;;;48.75;38.75;;;;;3.97;32.27;100781.69;5008634;28;8858;-81
2022/03/14 02:58:19;;;;;;;;;47.50;42.50;;;;;3.94;32.39;100776.41;4988814;28;8860;-79
2022/03/14 03:00:51;;;;;;;;;39.50;35.25;;;;;4.02;32.69;100778.50;4925388;28;9595;-82
2022/03/14 03:03:21;;;;;;;;;47.75;43.75;;;;;4.09;32.53;100782.25;4925340;28;8866;-81
2022/03/14 03:05:49;;;;;;;;;42.50;41.50;;;;;4.18;32.03;100784.34;4953607;28;8870;-79
2022/03/14 03:08:22;;;;;;;;;46.75;37.25;;;;;4.27;31.48;100788.25;4984784;28;8935;-78
2022/03/14 03:10:50;;;;;;;;;43.50;42.50;;;;;4.37;31.21;100791.25;4973050;28;8864;-80
2022/03/14 03:13:19;;;;;;;;;44.75;41.00;;;;;4.39;31.69;100787.03;4976084;28;9015;-78
2022/03/14 03:15:48;;;;;;;;;49.00;43.75;;;;;4.42;31.32;100792.31;4971603;28;8857;-79
2022/03/14 03:18:18;;;;;;;;;51.50;44.50;;;;;4.39;31.92;100794.78;4941201;28;9603;-78
2022/03/14 03:20:47;;;;;;;;;33.25;30.00;;;;;4.42;31.62;100794.91;4976225;28;8918;-78
2022/03/14 03:23:15;;;;;;;;;43.75;37.75;;;;;4.43;31.77;100796.69;4950221;28;8874;-77
2022/03/14 03:25:46;;;;;;;;;54.75;45.25;;;;;4.36;31.91;100805.84;4953153;28;8867;-79
2022/03/14 03:28:15;;;;;;;;;53.25;46.25;;;;;4.34;31.72;100811.75;4952880;28;8909;-78
2022/03/14 03:30:43;;;;;;;;;52.00;46.00;;;;;4.32;31.62;100811.69;4973521;28;8877;-77
2022/03/14 03:33:12;;;;;;;;;44.00;41.00;;;;;4.30;32.47;100813.31;4972987;28;9614;-78
2022/03/14 03:35:40;;;;;;;;;49.50;45.00;;;;;4.25;32.19;100813.13;4989817;28;8898;-78
2022/03/14 03:38:09;;;;;;;;;44.50;41.00;;;;;4.22;32.71;100825.88;4940555;28;8938;-79
2022/03/14 03:40:38;;;;;;;;;50.00;43.50;;;;;4.23;32.71;100824.16;4999470;28;8872;-79
2022/03/14 03:43:08;;;;;;;;;48.75;43.50;;;;;4.23;32.76;100829.34;4990682;28;8857;-78
2022/03/14 03:45:37;;;;;;;;;51.75;45.50;;;;;4.18;32.48;100828.22;5005662;28;8844;-78
2022/03/14 03:48:06;;;;;;;;;61.00;49.75;;;;;4.17;32.75;100823.91;5005529;28;8880;-78
2022/03/14 03:50:36;;;;;;;;;55.50;49.25;;;;;4.13;32.61;100838.38;5021893;28;8872;-79
2022/03/14 03:53:05;;;;;;;;;55.00;47.50;;;;;4.07;32.72;100827.75;4990467;28;8983;-78
2022/03/14 03:55:34;;;;;;;;;53.00;45.75;;;;;4.14;32.81;100828.91;4991733;28;8866;-79
2022/03/14 03:58:02;;;;;;;;;44.50;42.50;;;;;4.07;32.74;100828.63;5025349;28;8992;-79
2022/03/14 04:00:32;;;;;;;;;60.00;47.00;;;;;4.01;32.55;100827.47;5020924;28;8864;-78
2022/03/14 04:03:02;;;;;;;;;42.25;40.25;;;;;3.94;32.97;100836.63;4972913;28;8865;-77
2022/03/14 04:05:31;;;;;;;;;53.75;47.25;;;;;3.87;32.91;100832.84;4956595;28;8885;-81
2022/03/14 04:08:02;;;;;;;;;54.25;45.00;;;;;3.85;33.20;100838.75;5026849;28;8868;-79
2022/03/14 04:10:31;;;;;;;;;60.00;50.00;;;;;3.87;32.91;100834.56;5009810;28;8967;-78
2022/03/14 04:13:03;;;;;;;;;52.25;45.25;;;;;3.89;32.99;100845.84;5008585;28;9000;-78
2022/03/14 04:15:43;;;;;;;;;57.25;49.75;;;;;3.95;32.85;100834.91;4991042;28;8889;-78
2022/03/14 04:18:12;;;;;;;;;43.25;40.50;;;;;3.98;32.80;100845.41;4989545;28;8872;-77
2022/03/14 04:20:41;;;;;;;;;48.75;45.25;;;;;4.05;32.44;100835.44;4989999;28;8907;-79
2022/03/14 04:23:09;;;;;;;;;52.25;46.00;;;;;4.08;32.56;100839.84;4997580;28;8971;-78
2022/03/14 04:25:38;;;;;;;;;48.25;44.00;;;;;4.13;32.48;100835.78;4995002;28;8936;-77
2022/03/14 04:28:08;;;;;;;;;53.50;44.50;;;;;4.12;32.97;100840.88;4960821;28;8866;-78
2022/03/14 04:30:38;;;;;;;;;61.25;46.50;;;;;4.13;32.95;100846.09;5008650;28;8896;-79
2022/03/14 04:33:09;;;;;;;;;63.00;51.67;;;;;4.15;32.99;100843.59;5006108;28;8888;-79
2022/03/14 04:35:37;;;;;;;;;61.75;48.25;;;;;4.13;33.29;100846.09;4989559;28;8979;-79
2022/03/14 04:38:07;;;;;;;;;59.75;51.25;;;;;4.06;33.09;100846.63;4971151;28;8958;-78
2022/03/14 04:40:37;;;;;;;;;57.25;46.75;;;;;4.05;33.54;100857.78;4988472;28;8865;-78
2022/03/14 04:43:07;;;;;;;;;56.50;49.50;;;;;4.03;33.12;100854.25;5000252;28;8874;-79
2022/03/14 04:45:36;;;;;;;;;64.75;52.50;;;;;4.02;33.88;100855.91;4959086;28;8924;-77
2022/03/14 04:48:11;;;;;;;;;61.75;50.50;;;;;4.10;33.24;100869.19;4991873;28;8850;-78
2022/03/14 04:50:41;;;;;;;;;58.00;49.75;;;;;4.05;33.16;100874.13;4990540;28;8963;-79
2022/03/14 04:53:11;;;;;;;;;60.75;49.75;;;;;4.11;33.36;100870.97;4990244;28;8881;-79
2022/03/14 04:55:39;;;;;;;;;57.75;49.00;;;;;4.12;33.06;100877.91;5024123;28;8889;-78
2022/03/14 04:58:12;;;;;;;;;64.75;51.00;;;;;4.13;33.23;100871.03;4990671;28;8900;-78
2022/03/14 05:00:41;;;;;;;;;64.25;53.25;;;;;4.06;34.04;100869.84;5009649;28;8933;-78
2022/03/14 05:03:13;;;;;;;;;62.75;52.75;;;;;4.05;34.14;100871.56;5016596;28;8854;-77
2022/03/14 05:05:43;;;;;;;;;67.75;54.50;;;;;3.87;34.46;100870.69;4999646;28;8854;-79
2022/03/14 05:08:12;;;;;;;;;66.75;56.75;;;;;3.62;34.83;100881.53;5000615;28;8884;-77
2022/03/14 05:10:40;;;;;;;;;67.33;54.67;;;;;3.49;35.41;100880.03;4984350;28;8955;-78
2022/03/14 05:13:09;;;;;;;;;70.00;55.75;;;;;3.38;35.24;100886.34;4960553;28;8976;-79
2022/03/14 05:15:38;;;;;;;;;58.25;50.75;;;;;3.26;35.92;100887.50;4987726;28;8877;-78
2022/03/14 05:18:06;;;;;;;;;45.75;43.75;;;;;3.27;35.68;100890.94;4977852;28;9799;-79
2022/03/14 05:20:37;;;;;;;;;57.00;49.50;;;;;3.27;35.72;100894.44;5007004;28;8898;-78
2022/03/14 05:23:05;;;;;;;;;62.00;52.67;;;;;3.32;35.93;100895.53;4990844;28;8907;-79
2022/03/14 05:25:34;;;;;;;;;51.75;35.50;;;;;3.32;35.32;100910.13;4991126;28;8961;-78
2022/03/14 05:28:02;;;;;;;;;54.00;48.75;;;;;3.37;35.27;100900.94;4988803;28;8853;-79
2022/03/14 05:30:31;;;;;;;;;55.75;46.75;;;;;3.37;35.12;100911.25;4971187;28;8876;-76
2022/03/14 05:33:00;;;;;;;;;67.00;52.50;;;;;3.46;35.11;100905.66;4997258;28;8858;-77
2022/03/14 05:35:28;;;;;;;;;51.25;46.50;;;;;3.51;35.16;100919.66;5008674;28;8835;-80
2022/03/14 05:37:58;;;;;;;;;55.25;50.25;;;;;3.40;35.23;100919.13;4990663;28;8866;-77
2022/03/14 05:40:27;;;;;;;;;61.50;49.00;;;;;3.51;35.17;100925.69;4994574;28;8967;-78
2022/03/14 05:42:56;;;;;;;;;67.75;51.75;;;;;3.48;35.15;100924.69;4992666;28;8857;-79
2022/03/14 05:45:26;;;;;;;;;56.75;47.75;;;;;3.50;35.21;100928.22;5011187;28;8878;-80
2022/03/14 05:47:54;;;;;;;;;51.25;44.50;;;;;3.62;34.97;100933.97;5011858;28;8964;-78
2022/03/14 05:50:24;;;;;;;;;59.75;50.00;;;;;3.82;34.85;100924.66;4995171;28;8830;-79
2022/03/14 05:52:53;;;;;;;;;53.25;45.25;;;;;3.91;34.58;100929.38;5012736;28;8869;-78
2022/03/14 05:55:23;;;;;;;;;59.50;49.75;;;;;3.89;34.44;100926.72;5012083;28;8858;-79
2022/03/14 05:57:52;;;;;;;;;56.50;44.00;;;;;3.98;34.17;100934.00;5028875;28;8854;-78
2022/03/14 06:00:23;;;;;;;;;57.25;48.50;;;;;3.92;34.24;100935.44;5012247;28;8965;-78
2022/03/14 06:02:55;;;;;;;;;54.00;45.50;;;;;3.87;34.47;100948.09;5013072;28;8861;-80
2022/03/14 06:05:24;;;;;;;;;52.50;47.00;;;;;3.86;34.26;100939.47;4994780;28;8916;-80
2022/03/14 06:07:53;;;;;;;;;47.50;44.25;;;;;3.97;34.21;100939.09;4977847;28;8866;-79
2022/03/14 06:10:25;;;;;;;;;61.25;48.50;;;;;4.04;34.00;100942.03;5010675;28;8893;-80
2022/03/14 06:12:53;;;;;;;;;54.00;44.75;;;;;4.05;34.29;100946.41;5043114;28;8960;-80
2022/03/14 06:15:22;;;;;;;;;48.50;45.25;;;;;4.15;34.54;100937.41;4958768;28;8869;-80
2022/03/14 06:17:51;;;;;;;;;55.00;47.75;;;;;4.25;34.27;100942.22;5010597;28;8838;-79
2022/03/14 06:20:19;;;;;;;;;52.25;46.25;;;;;4.37;34.04;100947.06;5009603;28;8963;-79
2022/03/14 06:22:48;;;;;;;;;56.25;48.25;;;;;4.52;33.13;100944.31;5043228;28;8858;-78
2022/03/14 06:25:18;;;;;;;;;47.75;42.50;;;;;4.67;33.23;100947.59;4994216;28;8864;-79
2022/03/14 06:27:48;;;;;;;;;57.25;49.50;;;;;4.80;32.71;100946.47;4989819;28;8983;-79
2022/03/14 06:30:16;;;;;;;;;52.25;47.75;;;;;4.88;33.12;100954.56;4975831;28;9003;-79
2022/03/14 06:32:48;;;;;;;;;55.25;47.00;;;;;5.08;32.33;100956.34;4994140;28;9551;-79
2022/03/14 06:35:18;;;;;;;;;53.50;46.25;;;;;5.21;32.71;100954.28;4988957;28;8978;-79
2022/03/14 06:37:47;;;;;;;;;54.50;47.50;;;;;5.32;32.69;100962.53;4972059;28;8849;-78
2022/03/14 06:40:16;;;;;;;;;55.50;46.50;;;;;5.48;32.34;100954.59;4988817;28;8876;-78
2022/03/14 06:42:49;;;;;;;;;57.50;47.50;;;;;5.54;32.46;100948.78;4954656;28;8869;-81
2022/03/14 06:45:23;;;;;;;;;51.75;46.50;;;;;5.61;31.78;100954.31;4991463;28;8908;-78
2022/03/14 06:47:54;;;;;;;;;57.25;45.75;;;;;5.79;31.84;100956.78;4975227;28;8850;-79
2022/03/14 06:50:23;;;;;;;;;58.00;50.00;;;;;5.76;31.64;100955.75;4991979;28;8969;-78
2022/03/14 06:52:55;;;;;;;;;50.50;44.75;;;;;5.91;31.78;100950.34;5008767;28;8866;-79
2022/03/14 06:55:24;;;;;;;;;60.00;48.25;;;;;5.82;31.71;100956.91;4988678;28;8974;-79
2022/03/14 06:57:54;;;;;;;;;58.50;47.75;;;;;5.97;31.30;100961.88;4972714;28;8872;-79
2022/03/14 07:00:24;;;;;;;;;49.75;43.25;;;;;6.07;31.41;100955.38;4972953;28;9145;-80
2022/03/14 07:02:52;;;;;;;;;53.25;47.75;;;;;6.08;31.55;100964.88;4974873;28;9041;-78
2022/03/14 07:05:24;;;;;;;;;50.50;46.50;;;;;6.12;31.44;100965.91;4977393;28;8848;-80
2022/03/14 07:07:53;;;;;;;;;52.50;45.25;;;;;6.18;31.29;100963.53;5004726;28;8927;-78
2022/03/14 07:10:22;;;;;;;;;48.50;41.50;;;;;6.32;31.06;100956.34;5012739;28;8889;-78
2022/03/14 07:12:51;;;;;;;;;48.75;43.75;;;;;6.48;31.13;100955.22;4987294;28;8873;-79
2022/03/14 07:15:22;;;;;;;;;46.50;41.25;;;;;6.56;30.99;100957.28;5009351;28;8878;-78
2022/03/14 07:17:53;;;;;;;;;51.00;44.25;;;;;6.62;30.76;100961.84;5009710;28;8885;-78
2022/03/14 07:20:24;;;;;;;;;50.50;43.25;;;;;6.67;30.82;100957.69;5009420;28;8884;-77
2022/03/14 07:22:55;;;;;;;;;58.50;46.00;;;;;6.79;30.43;100963.34;4959637;28;8846;-79
2022/03/14 07:25:26;;;;;;;;;52.75;44.75;;;;;6.85;30.22;100970.47;5009056;28;8901;-78
2022/03/14 07:27:57;;;;;;;;;52.25;44.50;;;;;6.97;29.87;100967.44;5009331;28;8854;-79
2022/03/14 07:30:25;;;;;;;;;50.75;42.75;;;;;7.09;29.89;100962.72;5009348;28;8881;-79
2022/03/14 07:32:56;;;;;;;;;53.50;45.75;;;;;7.16;29.71;100963.81;5009077;28;9016;-80
2022/03/14 07:35:29;;;;;;;;;44.50;39.75;;;;;7.25;29.46;100969.34;5008931;28;8993;-80
2022/03/14 07:37:57;;;;;;;;;46.25;42.00;;;;;7.30;30.05;100977.31;4992464;28;8859;-80
2022/03/14 07:40:27;;;;;;;;;50.25;44.00;;;;;7.31;29.36;100963.47;5008951;28;8955;-79
2022/03/14 07:42:58;;;;;;;;;44.00;38.00;;;;;7.38;29.37;100962.88;4992767;28;8862;-79
2022/03/14 07:45:32;;;;;;;;;53.75;44.75;;;;;7.44;29.53;100976.06;4947057;28;8870;-82
2022/03/14 07:48:09;;;;;;;;;47.00;42.50;;;;;7.58;29.16;100972.25;4992425;28;8838;-79
2022/03/14 07:50:37;;;;;;;;;44.50;38.50;;;;;7.59;28.96;100967.94;4975705;28;8862;-77
2022/03/14 07:53:08;;;;;;;;;38.25;37.50;;;;;7.67;28.75;100978.56;5009777;28;8866;-81
2022/03/14 07:55:37;;;;;;;;;45.50;39.50;;;;;7.81;28.78;100980.81;5008974;28;8917;-80
2022/03/14 07:58:06;;;;;;;;;41.75;37.50;;;;;7.79;28.28;100984.19;4992751;28;8870;-79
2022/03/14 08:00:34;;;;;;;;;41.00;37.50;;;;;7.91;28.44;100987.19;5011822;28;8985;-80
2022/03/14 08:03:03;;;;;;;;;41.25;38.50;;;;;8.02;27.85;100992.75;4992711;28;8858;-79
2022/03/14 08:05:34;;;;;;;;;38.75;35.75;;;;;8.06;27.86;100988.56;5008895;28;8880;-78
2022/03/14 08:08:08;;;;;;;;;34.25;31.75;;;;;8.19;27.49;100998.50;4992867;28;8884;-79
2022/03/14 08:10:39;;;;;;;;;30.75;28.25;;;;;8.35;26.93;100992.94;5009072;28;8881;-78
2022/03/14 08:13:08;;;;;;;;;38.25;35.50;;;;;8.41;27.33;100997.47;5011024;28;8961;-81
2022/03/14 08:15:37;;;;;;;;;34.75;32.50;;;;;8.45;27.38;100991.59;5025634;28;8877;-80
2022/03/14 08:18:08;;;;;;;;;35.50;33.00;;;;;8.49;27.09;100988.25;4992239;28;8858;-80
2022/03/14 08:20:38;;;;;;;;;32.25;30.25;;;;;8.54;27.08;100989.28;5009458;28;8862;-79
2022/03/14 08:23:09;;;;;;;;;34.75;30.75;;;;;8.46;27.00;100993.34;4991812;28;8854;-79
2022/03/14 08:25:38;;;;;;;;;9.50;7.25;;;;;8.57;27.42;101002.34;4991886;28;8898;-78
2022/03/14 08:28:06;;;;;;;;;26.75;26.75;;;;;8.67;27.05;100992.25;5008816;28;8874;-79
2022/03/14 08:30:35;;;;;;;;;33.50;30.25;;;;;8.73;26.67;100997.63;4992976;28;8838;-78
2022/03/14 08:33:04;;;;;;;;;28.25;27.00;;;;;8.83;26.39;101003.97;5011947;28;8846;-77
2022/03/14 08:35:34;;;;;;;;;33.25;31.00;;;;;8.94;26.27;100990.47;4992254;28;8993;-79
2022/03/14 08:38:04;;;;;;;;;26.25;26.25;;;;;8.95;25.97;100988.75;4975691;28;8862;-80
2022/03/14 08:40:33;;;;;;;;;33.00;28.50;;;;;9.01;26.28;100988.03;4992253;28;8870;-79
2022/03/14 08:43:01;;;;;;;;;26.50;24.25;;;;;9.05;26.48;100990.75;4992014;28;8872;-80
2022/03/14 08:45:30;;;;;;;;;25.50;24.00;;;;;9.28;26.09;100990.53;5008703;28;8869;-79
2022/03/14 08:47:58;;;;;;;;;24.75;24.00;;;;;9.51;25.40;100979.06;4992075;28;8968;-80
2022/03/14 08:50:27;;;;;;;;;20.25;20.25;;;;;9.68;25.47;100987.31;4991895;28;8968;-80
2022/03/14 08:52:56;;;;;;;;;24.75;23.25;;;;;9.84;25.32;100987.72;5007740;28;8948;-80
2022/03/14 08:55:26;;;;;;;;;26.50;22.25;;;;;9.92;24.74;100994.88;5007951;28;8878;-79
2022/03/14 08:57:55;;;;;;;;;23.25;22.00;;;;;9.97;23.69;100987.16;4943174;28;8889;-80
2022/03/14 09:00:29;;;;;;;;;23.75;23.25;;;;;10.13;23.70;100996.25;4991377;28;9607;-79
2022/03/14 09:02:58;;;;;;;;;25.75;23.25;;;;;10.07;23.10;100986.53;4991409;28;8854;-80
2022/03/14 09:05:26;;;;;;;;;23.75;22.25;;;;;10.12;23.84;100992.75;4990967;28;9608;-80
2022/03/14 09:07:55;;;;;;;;;20.50;19.50;;;;;10.22;23.58;100996.47;4991366;28;8888;-80
2022/03/14 09:10:24;;;;;;;;;25.00;22.25;;;;;10.25;23.39;100996.56;5007658;28;8850;-79
2022/03/14 09:12:55;;;;;;;;;18.25;17.00;;;;;10.42;23.33;100998.72;4991141;28;9608;-80
2022/03/14 09:15:24;;;;;;;;;20.25;19.25;;;;;10.44;22.90;101000.50;5007173;28;8858;-78
2022/03/14 09:17:56;;;;;;;;;23.25;23.25;;;;;10.38;23.13;100996.88;5007589;28;8873;-79
2022/03/14 09:20:26;;;;;;;;;24.00;20.75;;;;;10.36;22.89;100995.94;5008312;28;8948;-77
2022/03/14 09:22:55;;;;;;;;;22.00;21.75;;;;;10.40;23.06;100997.81;4991332;28;8862;-81
2022/03/14 09:25:25;;;;;;;;;21.50;21.00;;;;;10.51;23.04;101006.78;5008609;28;9000;-78
2022/03/14 09:27:55;;;;;;;;;20.50;20.50;;;;;10.66;23.31;101001.00;4957495;28;9711;-80
2022/03/14 09:30:24;;;;;;;;;21.50;20.75;;;;;10.81;23.11;100987.41;4991091;28;8866;-81
2022/03/14 09:32:54;;;;;;;;;22.25;18.75;;;;;10.87;22.82;100996.28;4991211;28;8866;-79
2022/03/14 09:35:24;;;;;;;;;25.25;22.25;;;;;10.82;22.69;100997.88;5010374;28;8850;-81
2022/03/14 09:37:54;;;;;;;;;22.75;21.00;;;;;10.86;22.77;100993.63;5008028;28;8955;-78
2022/03/14 09:40:23;;;;;;;;;21.50;19.50;;;;;10.94;22.82;100997.25;5007731;28;8874;-79
2022/03/14 09:42:56;;;;;;;;;24.75;24.00;;;;;10.97;22.78;100992.13;4990775;28;8834;-80
2022/03/14 09:45:25;;;;;;;;;23.25;20.00;;;;;10.87;22.90;100995.41;5007519;28;8866;-79
2022/03/14 09:47:58;;;;;;;;;19.00;14.75;;;;;10.86;23.00;100993.63;4973571;28;8963;-79
2022/03/14 09:50:32;;;;;;;;;26.00;25.00;;;;;10.97;23.14;101006.91;4991181;28;8893;-82
2022/03/14 09:53:04;;;;;;;;;23.50;22.00;;;;;11.05;23.21;101008.81;4990741;28;8874;-79
2022/03/14 09:55:37;;;;;;;;;22.75;19.50;;;;;11.18;23.09;101009.97;4990353;28;8862;-79
2022/03/14 09:58:08;;;;;;;;;26.50;20.50;;;;;11.16;23.19;101006.44;4991223;28;8890;-79
2022/03/14 10:00:37;;;;;;;;;23.00;21.00;;;;;11.18;22.79;101007.34;5006833;28;8872;-79
2022/03/14 10:03:13;;;;;;;;;26.50;23.75;;;;;11.26;22.70;101007.50;4990617;28;8850;-82
2022/03/14 10:05:44;;;;;;;;;20.75;17.75;;;;;11.21;22.55;100998.69;4990488;28;8948;-79
2022/03/14 10:08:13;;;;;;;;;20.25;19.00;;;;;11.28;22.86;101004.06;4990381;28;8870;-77
2022/03/14 10:10:43;;;;;;;;;30.00;23.00;;;;;11.40;22.49;101011.28;5023112;28;8886;-83
2022/03/14 10:13:33;;;;;;;;;21.25;19.25;;;;;11.58;22.93;101000.28;4990758;28;8853;-79
2022/03/14 10:16:03;;;;;;;;;21.25;20.00;;;;;11.65;23.32;101003.91;5007786;28;8969;-78
2022/03/14 10:18:37;;;;;;;;;24.00;20.00;;;;;11.80;22.54;100998.97;4990825;28;8858;-81
2022/03/14 10:21:06;;;;;;;;;22.75;19.75;;;;;11.88;22.69;101002.59;4990675;28;8873;-78
2022/03/14 10:23:41;;;;;;;;;22.50;19.00;;;;;11.94;22.10;101009.69;5007123;28;8874;-79
2022/03/14 10:26:12;;;;;;;;;23.50;21.00;;;;;12.06;22.15;101009.00;4993411;28;8940;-83
2022/03/14 10:28:44;;;;;;;;;25.25;22.25;;;;;12.15;21.74;101011.78;4994768;28;8862;-81
2022/03/14 10:31:38;;;;;;;;;25.50;22.75;;;;;12.12;22.38;101011.75;4995060;28;8862;-80
2022/03/14 10:34:10;;;;;;;;;24.75;21.75;;;;;12.19;22.46;101003.16;4961914;28;8858;-79
2022/03/14 10:36:47;;;;;;;;;21.75;20.00;;;;;12.25;22.05;100999.75;4994614;28;8862;-80
2022/03/14 10:39:20;;;;;;;;;28.00;24.25;;;;;12.34;22.47;100997.25;4944973;28;8881;-79
2022/03/14 10:42:03;;;;;;;;;23.00;20.00;;;;;12.39;22.00;101011.31;4961439;28;8870;-79
2022/03/14 10:44:54;;;;;;;;;20.50;20.25;;;;;12.61;23.04;101009.03;4993536;28;8843;-78
2022/03/14 10:47:26;;;;;;;;;20.50;20.00;;;;;12.74;22.50;101010.06;5009288;28;8993;-81
2022/03/14 10:49:55;;;;;;;;;25.50;22.50;;;;;12.85;22.23;100996.28;5009808;28;8862;-79
2022/03/14 10:52:23;;;;;;;;;22.25;22.00;;;;;12.91;22.35;100992.88;4995447;28;9081;-81
2022/03/14 10:54:52;;;;;;;;;21.75;19.75;;;;;13.01;22.15;100991.25;4995826;28;8907;-78
2022/03/14 10:57:23;;;;;;;;;16.75;16.50;;;;;13.12;20.75;100989.66;4993981;28;9028;-80
2022/03/14 10:59:55;;;;;;;;;21.00;18.20;;;;;13.16;20.89;100993.19;5009968;28;8961;-80
2022/03/14 11:02:26;;;;;;;;;10.50;9.50;;;;;13.20;20.75;100993.22;4993880;28;8846;-80
2022/03/14 11:04:57;;;;;;;;;19.50;19.50;;;;;13.32;21.03;100995.13;5010235;28;8872;-81
2022/03/14 11:07:27;;;;;;;;;17.00;16.00;;;;;13.27;20.81;100992.44;4993721;28;8866;-80
2022/03/14 11:09:57;;;;;;;;;19.60;18.80;;;;;13.33;21.14;100994.28;4995500;28;8870;-79
2022/03/14 11:12:28;;;;;;;;;18.60;17.60;;;;;13.43;21.03;100992.66;5013627;28;8947;-81
2022/03/14 11:14:59;;;;;;;;;17.20;15.20;;;;;13.51;20.56;100975.25;4983825;28;8898;-80
2022/03/14 11:17:30;;;;;;;;;15.20;14.80;;;;;13.62;20.24;100976.25;5006799;28;8865;-78
2022/03/14 11:20:16;;;;;;;;;18.25;16.75;;;;;13.72;20.13;100974.59;4989935;28;8888;-78
2022/03/14 11:22:47;;;;;;;;;7.00;5.75;;;;;13.93;19.94;100970.41;5006489;28;8864;-79
2022/03/14 11:25:16;;;;;;;;;19.50;16.75;;;;;14.07;20.13;100971.41;4974148;28;8939;-81
2022/03/14 11:27:47;;;;;;;;;21.50;20.75;;;;;14.20;20.14;100961.91;4941156;28;8853;-80
2022/03/14 11:30:19;;;;;;;;;16.00;15.00;;;;;14.27;20.11;100960.19;4983449;28;8904;-80
2022/03/14 11:32:48;;;;;;;;;15.50;13.75;;;;;14.32;19.75;100964.59;4976567;28;9631;-82
2022/03/14 11:35:17;;;;;;;;;19.00;15.50;;;;;14.38;19.56;100962.00;4993800;28;8887;-82
2022/03/14 11:37:46;;;;;;;;;18.00;17.50;;;;;14.39;19.96;100969.03;4992357;28;8912;-80